This is the latest recevied weather packets stored in our database for station/object WQ5C-13. If no packets are shown the sender has not sent any weather packets the latest 10 day(s).
| Time | Temp. | Humidity | Pressure | Rain* | Wind** | Luminosity | Snow |
|---|---|---|---|---|---|---|---|
| 1777897815 | 15° C | 94% | 1014.9 hPa | 0 mm | - | - | - |
| 1777896616 | 14.44° C | 93% | 1014.7 hPa | 0 mm | - | - | - |
| 1777893635 | 14.44° C | 92% | 1014.6 hPa | 0 mm | - | - | - |
| 1777890636 | 14.44° C | 90% | 1014.9 hPa | 0 mm | - | - | - |
| 1777890015 | 14.44° C | 89% | 1014.8 hPa | 0 mm | - | - | - |
| 1777888235 | 15° C | 88% | 1014.8 hPa | 0 mm | - | - | - |
| 1777887015 | 15° C | 87% | 1015.1 hPa | 0 mm | - | - | - |
| 1777878035 | 17.22° C | 76% | 1016.5 hPa | 0 mm | - | - | - |
| 1777872615 | 18.33° C | 70% | 1017.4 hPa | 0 mm | - | - | - |
| 1777871436 | 18.33° C | 68% | 1017.4 hPa | 0 mm | - | - | - |
| 1777870815 | 18.33° C | 68% | 1017.4 hPa | 0 mm | - | - | - |
| 1777866615 | 18.89° C | 64% | 1017.6 hPa | 0 mm | - | - | - |
| 1777864215 | 18.33° C | 64% | 1017.4 hPa | 0 mm | - | - | - |
| 1777859415 | 19.44° C | 57% | 1016.9 hPa | 0 mm | - | - | - |
| 1777855215 | 21.67° C | 43% | 1016.8 hPa | 0 mm | - | - | - |
| 1777854616 | 22.22° C | 44% | 1017 hPa | 0 mm | - | - | - |
| 1777852816 | 22.22° C | 42% | 1017.3 hPa | 0 mm | - | - | - |
| 1777846836 | 22.78° C | 41% | 1017.9 hPa | 0 mm | - | - | - |
| 1777843815 | 23.33° C | 40% | 1018.7 hPa | 0 mm | - | - | - |
| 1777840815 | 23.89° C | 39% | 1019.7 hPa | 0 mm | - | - | - |
| 1777830615 | 22.78° C | 46% | 1022.4 hPa | 0 mm | - | - | - |
| 1777830035 | 22.78° C | 44% | 1022.7 hPa | 0 mm | - | - | - |
| 1777821615 | 21.11° C | 53% | 1023.5 hPa | 0 mm | - | - | - |
| 1777818016 | 17.78° C | 76% | 1023.1 hPa | 0 mm | - | - | - |
| 1777817415 | 16.67° C | 82% | 1022.9 hPa | 0 mm | - | - | - |
* Rain latest hour (hover to see other rain measurements)
** Current wind speed in m/s (hover to see current wind gust speed)